Погода Суикина 2 недели

Аура, Мальта

20 июля-01 августа
  • 20июля
    Сегодня
    +26°
    +34°
    Ясно и безоблачно
    ВремяПогодаТемператураВлажностьДавлениеВетер, м/сВероятность осадков
    02:00Ясно и безоблачно+27°C88 %758 мм3.5 м/с2 %
    05:00Ясно и безоблачно+27°C89 %757 мм4.4 м/с2 %
    08:00Ясно и безоблачно+30°C79 %758 мм4.5 м/с2 %
    11:00Ясно и безоблачно+32°C68 %758 мм5.2 м/с2 %
    14:00Ясно и безоблачно+33°C63 %757 мм4.5 м/с2 %
    17:00Ясно и безоблачно+32°C64 %757 мм6.1 м/с2 %
    20:00Ясно и безоблачно+29°C73 %757 мм4.3 м/с2 %
    23:00Ясно и безоблачно+27°C77 %757 мм3.9 м/с2 %
  • 21июля
    Воскресенье
    +26°
    +35°
    Ясно и безоблачно
    ВремяПогодаТемператураВлажностьДавлениеВетер, м/сВероятность осадков
    02:00Ясно и безоблачно+27°C84 %757 мм3.1 м/с2 %
    05:00Ясно и безоблачно+26°C92 %757 мм3.3 м/с2 %
    08:00Ясно и безоблачно+29°C82 %758 мм5.7 м/с2 %
    11:00Ясно и безоблачно+32°C62 %758 мм2.0 м/с2 %
    14:00Ясно и безоблачно+35°C53 %758 мм4.3 м/с2 %
    17:00Ясно и безоблачно+34°C52 %757 мм6.1 м/с2 %
    20:00Ясно и безоблачно+31°C59 %757 мм0.4 м/с2 %
    23:00Ясно и безоблачно+28°C63 %758 мм1.8 м/с2 %
  • 22июля
    Понедельник
    +24°
    +32°
    Ясно и безоблачно
    ВремяПогодаТемператураВлажностьДавлениеВетер, м/сВероятность осадков
    02:00Ясно и безоблачно+27°C78 %757 мм2.9 м/с2 %
    05:00Ясно и безоблачно+26°C83 %757 мм2.0 м/с2 %
    08:00Ясно и безоблачно+30°C74 %758 мм2.3 м/с2 %
    11:00Ясно и безоблачно+32°C74 %759 мм6.5 м/с2 %
    14:00Ясно и безоблачно+32°C73 %759 мм8.7 м/с2 %
    17:00Ясно и безоблачно+30°C67 %758 мм10.0 м/с2 %
    20:00Ясно и безоблачно+28°C78 %759 мм10.0 м/с2 %
    23:00Ясно и безоблачно+26°C84 %759 мм10.3 м/с2 %
  • 23июля
    Вторник
    +24°
    +31°
    Ясно и безоблачно
    ВремяПогодаТемператураВлажностьДавлениеВетер, м/сВероятность осадков
    02:00Ясно и безоблачно+25°C86 %758 мм10.4 м/с2 %
    05:00Ясно и безоблачно+24°C85 %758 мм9.6 м/с2 %
    08:00Ясно и безоблачно+28°C84 %758 мм9.9 м/с2 %
    11:00Ясно и безоблачно+30°C74 %759 мм9.6 м/с2 %
    14:00Ясно и безоблачно+31°C69 %759 мм7.6 м/с2 %
    17:00Ясно и безоблачно+30°C73 %759 мм7.2 м/с2 %
    20:00Ясно и безоблачно+28°C82 %759 мм6.5 м/с2 %
    23:00Ясно и безоблачно+26°C83 %759 мм6.2 м/с2 %
Мы используем cookies
Соглашаюсь